Terminal Aerodrome Forecast
Issued by NWS

Home | Current Version | Previous Version | Text Only | Print | Product List | Glossary On
Versions: 1 2 3 4 5 6 7 8 9 10 11 12 13 14 15 16 17 18 19 20 21 22 23 24 25 26 27
000
FTUS44 KFWD 240520
TAFFTW
TAF
KFTW 240520Z 2406/2506 03010KT P6SM VCTS SCT060CB BKN250
      TEMPO 2406/2408 02025KT TSRA BKN035CB OVC150
     FM240800 03009KT 5SM -TSRA SCT020 BKN040CB
     FM241100 03012KT 5SM -TSRA BKN015 BKN030CB
     FM241300 02012KT 5SM -SHRA VCTS BKN015 BKN035CB
     FM241700 05010KT P6SM SCT025 BKN050=

USA.gov is the U.S. government's official web portal to all federal, state and local government web resources and services.